Flugmeteorologie

  • METAR LHSM 231245Z 35005KT 6000 -RA BKN083 04/01 Q1026=
  • METAR LHSM 231215Z 35006KT 8000 BKN083 04/01 Q1026=
  • METAR LHSM 231145Z 31004KT 8000 BKN083 04/01 Q1026 RERA=
  • METAR LHSM 231115Z 29005KT 7000 BKN083 03/00 Q1026 RERA=
  • METAR LHSM 231045Z 30006KT 6000 -RA OVC083 03/00 Q1025=

  • TAF LHSM 230515Z 2306/2315 36005KT 7000 SCT020 BKN070
  • TAF LHSM 221115Z 2212/2221 VRB03KT CAVOK
  • TAF LHSM 220815Z 2209/2218 VRB03KT CAVOK
  • TAF LHSM 220515Z 2206/2215 VRB03KT CAVOK=
  • TAF LHSM 211115Z 2112/2121 36014G24KT 9999 SCT020 BKN200